createdAt,value
2023-03-15T00:02:12.284Z,2.03
2023-03-15T00:04:42.195Z,1.90
2023-03-15T00:07:11.602Z,2.00
2023-03-15T00:09:41.513Z,1.33
2023-03-15T00:12:10.801Z,1.20
2023-03-15T00:14:40.174Z,1.85
2023-03-15T00:17:09.243Z,2.45
2023-03-15T00:19:38.358Z,1.50
2023-03-15T00:22:08.948Z,0.75
2023-03-15T00:24:37.868Z,1.80
2023-03-15T00:27:08.153Z,1.87
2023-03-15T00:29:37.152Z,1.83
2023-03-15T00:32:06.747Z,2.28
2023-03-15T00:34:35.914Z,1.77
2023-03-15T00:37:05.599Z,2.72
2023-03-15T00:39:38.555Z,1.85
2023-03-15T00:42:09.358Z,1.73
2023-03-15T00:44:38.819Z,1.65
2023-03-15T00:47:08.437Z,1.50
2023-03-15T00:49:37.514Z,1.75
2023-03-15T00:52:09.812Z,2.62
2023-03-15T00:54:38.837Z,1.08
2023-03-15T00:57:08.349Z,1.90
2023-03-15T00:59:36.881Z,1.80
2023-03-15T01:02:08.245Z,2.45
2023-03-15T01:04:37.976Z,1.10
2023-03-15T01:07:07.245Z,1.55
2023-03-15T01:09:36.307Z,2.30
2023-03-15T01:12:06.521Z,1.85
2023-03-15T01:14:37.996Z,1.80
2023-03-15T01:17:06.879Z,2.17
2023-03-15T01:19:37.466Z,2.22
2023-03-15T01:22:06.869Z,2.08
2023-03-15T01:24:37.875Z,1.77
2023-03-15T01:27:07.685Z,2.28
2023-03-15T01:29:37.073Z,2.40
2023-03-15T01:32:08.452Z,2.50
2023-03-15T01:34:38.678Z,2.53
2023-03-15T01:37:08.440Z,2.47
2023-03-15T01:39:38.662Z,2.05
2023-03-15T01:42:09.646Z,2.35
2023-03-15T01:45:01.416Z,2.35
2023-03-15T01:47:32.904Z,2.78
2023-03-15T01:50:10.373Z,2.85
2023-03-15T01:52:42.446Z,2.80
2023-03-15T01:55:17.725Z,2.45
2023-03-15T01:57:57.002Z,2.80
2023-03-15T02:00:26.701Z,1.70
2023-03-15T02:03:04.394Z,4.00
2023-03-15T02:05:39.867Z,2.05
2023-03-15T02:08:10.331Z,2.17
2023-03-15T02:10:45.994Z,2.60
2023-03-15T02:13:20.774Z,1.92
2023-03-15T02:15:50.827Z,1.60
2023-03-15T02:18:21.993Z,2.60
2023-03-15T02:21:08.715Z,2.12
2023-03-15T02:23:37.019Z,2.22
2023-03-15T02:26:08.428Z,3.22
2023-03-15T02:28:37.955Z,2.35
2023-03-15T02:31:07.678Z,2.17
2023-03-15T02:33:43.872Z,3.17
2023-03-15T02:36:30.591Z,2.53
2023-03-15T02:39:02.046Z,2.37
2023-03-15T02:41:37.349Z,2.03
2023-03-15T02:44:22.749Z,2.67
2023-03-15T02:46:55.043Z,1.60
2023-03-15T02:49:28.025Z,2.25
2023-03-15T02:51:57.040Z,3.37
2023-03-15T02:54:25.938Z,1.70
2023-03-15T02:56:54.800Z,2.92
2023-03-15T02:59:23.457Z,2.17
2023-03-15T03:01:52.235Z,1.92
2023-03-15T03:04:21.604Z,2.17
2023-03-15T03:06:50.663Z,1.23
2023-03-15T03:09:19.591Z,1.83
2023-03-15T03:11:49.589Z,2.80
2023-03-15T03:14:19.326Z,1.60
2023-03-15T03:16:49.477Z,2.53
2023-03-15T03:19:19.455Z,1.60
2023-03-15T03:21:47.851Z,1.80
2023-03-15T03:24:19.395Z,2.65
2023-03-15T03:26:49.588Z,1.65
2023-03-15T03:29:19.042Z,2.65
2023-03-15T03:31:48.451Z,1.90
2023-03-15T03:34:18.117Z,2.53
2023-03-15T03:36:46.508Z,3.10
2023-03-15T03:39:15.475Z,2.75
2023-03-15T03:41:45.226Z,2.95
2023-03-15T03:44:14.516Z,2.58
2023-03-15T03:46:43.416Z,2.62
2023-03-15T03:49:15.346Z,2.90
2023-03-15T03:51:46.688Z,2.37
2023-03-15T03:54:17.175Z,2.08
2023-03-15T03:56:47.671Z,2.23
2023-03-15T03:59:17.425Z,2.20
2023-03-15T04:01:52.473Z,1.80
2023-03-15T04:04:21.157Z,2.28
2023-03-15T04:06:51.864Z,1.20
2023-03-15T04:09:26.433Z,2.03
2023-03-15T04:11:56.244Z,2.72
2023-03-15T04:14:26.531Z,3.60
2023-03-15T04:16:55.429Z,1.83
2023-03-15T04:19:23.585Z,1.87
2023-03-15T04:21:53.516Z,2.30
2023-03-15T04:24:42.234Z,1.73
2023-03-15T04:27:15.357Z,1.98
2023-03-15T04:29:45.354Z,1.95
2023-03-15T04:32:13.963Z,2.58
2023-03-15T04:34:43.094Z,2.37
2023-03-15T04:37:12.766Z,2.05
2023-03-15T04:39:43.674Z,3.00
2023-03-15T04:42:14.475Z,1.77
2023-03-15T04:44:44.070Z,1.70
2023-03-15T04:47:13.758Z,2.92
2023-03-15T04:49:43.432Z,2.53
2023-03-15T04:52:11.658Z,1.65
2023-03-15T04:54:39.796Z,2.78
2023-03-15T04:57:09.806Z,2.92
2023-03-15T04:59:40.339Z,1.87
2023-03-15T05:02:09.304Z,2.60
2023-03-15T05:04:37.387Z,1.02
2023-03-15T05:07:06.759Z,2.03
2023-03-15T05:09:40.106Z,3.70
2023-03-15T05:12:10.099Z,1.65
2023-03-15T05:14:38.801Z,1.80
2023-03-15T05:17:08.290Z,1.35
2023-03-15T05:19:43.151Z,1.42
2023-03-15T05:22:11.013Z,2.45
2023-03-15T05:24:39.923Z,2.17
2023-03-15T05:27:10.652Z,1.58
2023-03-15T05:29:39.056Z,3.22
2023-03-15T05:32:08.553Z,1.67
2023-03-15T05:34:38.278Z,3.20
2023-03-15T05:37:07.679Z,2.55
2023-03-15T05:39:36.485Z,2.22
2023-03-15T05:42:07.608Z,3.12
2023-03-15T05:44:36.858Z,2.25
2023-03-15T05:47:04.696Z,2.83
2023-03-15T05:49:33.951Z,2.87
2023-03-15T05:52:05.255Z,1.70
2023-03-15T05:54:33.662Z,2.90
2023-03-15T05:57:03.520Z,2.42
2023-03-15T05:59:33.806Z,2.53
2023-03-15T06:02:04.760Z,2.25
2023-03-15T06:04:35.110Z,2.65
2023-03-15T06:07:04.539Z,1.23
2023-03-15T06:09:35.278Z,2.15
2023-03-15T06:12:06.460Z,2.45
2023-03-15T06:14:35.268Z,2.95
2023-03-15T06:17:05.910Z,3.12
2023-03-15T06:19:37.362Z,2.78
2023-03-15T06:22:06.748Z,2.28
2023-03-15T06:24:36.474Z,1.95
2023-03-15T06:27:05.166Z,3.15
2023-03-15T06:29:36.695Z,2.80
2023-03-15T06:32:06.289Z,2.28
2023-03-15T06:34:34.362Z,2.58
2023-03-15T06:37:04.059Z,3.15
2023-03-15T06:39:35.108Z,1.85
2023-03-15T06:42:05.755Z,2.85
2023-03-15T06:44:34.861Z,3.40
2023-03-15T06:47:05.000Z,2.30
2023-03-15T06:49:38.609Z,1.98
2023-03-15T06:52:08.515Z,2.05
2023-03-15T06:54:37.138Z,3.08
2023-03-15T06:57:06.152Z,2.40
2023-03-15T06:59:34.822Z,3.03
2023-03-15T07:02:03.282Z,1.87
2023-03-15T07:04:32.535Z,2.97
2023-03-15T07:07:00.984Z,2.60
2023-03-15T07:09:30.479Z,2.60
2023-03-15T07:11:59.185Z,3.42
2023-03-15T07:14:31.300Z,1.37
2023-03-15T07:17:01.173Z,2.87
2023-03-15T07:19:30.300Z,2.17
2023-03-15T07:21:59.249Z,3.17
2023-03-15T07:24:28.887Z,1.50
2023-03-15T07:26:58.698Z,3.15
2023-03-15T07:29:27.421Z,3.50
2023-03-15T07:31:56.171Z,2.60
2023-03-15T07:34:25.238Z,3.70
2023-03-15T07:36:54.110Z,4.28
2023-03-15T07:39:24.070Z,3.97
2023-03-15T07:41:53.905Z,2.97
2023-03-15T07:44:22.677Z,4.65
2023-03-15T07:46:52.519Z,3.40
2023-03-15T07:49:23.100Z,3.80
2023-03-15T07:51:52.060Z,3.40
2023-03-15T07:54:20.758Z,2.92
2023-03-15T07:56:49.531Z,1.83
2023-03-15T07:59:18.025Z,4.50
2023-03-15T08:01:48.178Z,1.92
2023-03-15T08:04:16.791Z,2.92
2023-03-15T08:06:45.494Z,2.80
2023-03-15T08:09:14.227Z,1.70
2023-03-15T08:11:44.054Z,2.92
2023-03-15T08:14:13.896Z,3.20
2023-03-15T08:16:43.251Z,2.35
2023-03-15T08:19:11.707Z,3.45
2023-03-15T08:21:40.857Z,4.25
2023-03-15T08:24:10.059Z,4.00
2023-03-15T08:26:40.088Z,2.60
2023-03-15T08:29:10.457Z,2.65
2023-03-15T08:31:39.876Z,2.12
2023-03-15T08:34:07.913Z,3.12
2023-03-15T08:36:37.122Z,3.22
2023-03-15T08:39:06.568Z,3.47
2023-03-15T08:41:36.046Z,2.62
2023-03-15T08:44:04.572Z,3.55
2023-03-15T08:46:34.309Z,2.90
2023-03-15T08:49:03.483Z,4.50
2023-03-15T08:51:32.783Z,2.00
2023-03-15T08:54:04.243Z,1.55
2023-03-15T08:56:32.855Z,4.57
2023-03-15T08:59:01.511Z,5.25
2023-03-15T09:01:30.447Z,5.18
2023-03-15T09:03:58.526Z,4.28
2023-03-15T09:06:26.476Z,4.10
2023-03-15T09:08:54.826Z,3.58
2023-03-15T09:11:24.095Z,4.07
2023-03-15T09:13:54.393Z,3.72
2023-03-15T09:16:22.838Z,3.85
2023-03-15T09:18:50.577Z,3.53
2023-03-15T09:21:18.435Z,4.05
2023-03-15T09:23:46.338Z,4.03
2023-03-15T09:26:15.262Z,4.07
2023-03-15T09:28:43.820Z,2.80
2023-03-15T09:31:11.994Z,1.33
2023-03-15T09:33:40.501Z,3.03
2023-03-15T09:36:09.809Z,2.87
2023-03-15T09:38:38.154Z,2.22
2023-03-15T09:41:07.305Z,1.42
2023-03-15T09:43:42.502Z,1.80
2023-03-15T09:46:30.888Z,2.15
2023-03-15T09:49:33.823Z,3.78
2023-03-15T09:52:26.977Z,1.45
2023-03-15T09:55:02.358Z,2.30
2023-03-15T09:57:37.065Z,3.60
2023-03-15T10:00:11.890Z,2.17
2023-03-15T10:02:52.137Z,1.55
2023-03-15T10:05:36.349Z,2.30
2023-03-15T10:08:11.674Z,2.75
2023-03-15T10:10:47.865Z,1.37
2023-03-15T10:13:17.484Z,3.40
2023-03-15T10:16:22.826Z,3.75
2023-03-15T10:19:06.451Z,1.50
2023-03-15T10:21:42.941Z,2.08
2023-03-15T10:24:23.751Z,1.73
2023-03-15T10:26:55.563Z,1.45
2023-03-15T10:29:26.924Z,3.12
2023-03-15T10:31:55.746Z,1.58
2023-03-15T10:34:27.502Z,1.08
2023-03-15T10:36:58.455Z,2.33
2023-03-15T10:39:26.916Z,0.95
2023-03-15T10:41:55.584Z,1.55
2023-03-15T10:44:28.328Z,2.75
2023-03-15T10:47:23.663Z,2.85
2023-03-15T10:50:01.544Z,1.40
2023-03-15T10:52:36.778Z,3.05
2023-03-15T10:55:26.829Z,2.53
2023-03-15T10:58:00.548Z,2.15
2023-03-15T11:00:34.183Z,3.55
2023-03-15T11:03:07.647Z,2.62
2023-03-15T11:05:46.545Z,2.85
2023-03-15T11:08:18.815Z,2.78
2023-03-15T11:10:54.853Z,3.08
2023-03-15T11:13:27.090Z,3.12
2023-03-15T11:16:05.436Z,2.50
2023-03-15T11:18:39.029Z,2.40
2023-03-15T11:21:11.332Z,3.60
2023-03-15T11:23:45.617Z,2.97
2023-03-15T11:26:32.965Z,1.80
2023-03-15T11:29:15.331Z,2.90
2023-03-15T11:31:43.689Z,1.75
2023-03-15T11:34:23.511Z,2.25
2023-03-15T11:37:07.571Z,2.67
2023-03-15T11:39:46.472Z,0.90
2023-03-15T11:42:22.181Z,2.70
2023-03-15T11:44:56.567Z,2.33
2023-03-15T11:47:41.011Z,2.97
2023-03-15T11:50:15.937Z,1.17
2023-03-15T11:52:50.070Z,2.03
2023-03-15T11:55:27.884Z,1.33
2023-03-15T11:57:58.688Z,2.35
2023-03-15T12:00:50.900Z,2.33
2023-03-15T12:03:42.171Z,1.77
2023-03-15T12:06:14.611Z,2.33
2023-03-15T12:08:48.886Z,2.65
2023-03-15T12:11:38.045Z,2.83
2023-03-15T12:14:22.315Z,2.62
2023-03-15T12:16:50.541Z,2.72
2023-03-15T12:19:23.486Z,2.37
2023-03-15T12:24:23.838Z,3.42
2023-03-15T12:27:16.326Z,3.70
2023-03-15T12:29:47.617Z,3.53
2023-03-15T12:32:18.904Z,2.85
2023-03-15T12:34:50.813Z,3.08
2023-03-15T12:37:26.534Z,3.15
2023-03-15T12:40:35.059Z,3.28
2023-03-15T12:43:03.782Z,2.60
2023-03-15T12:45:40.555Z,3.45
2023-03-15T12:48:24.098Z,3.17
2023-03-15T12:50:57.193Z,2.53
2023-03-15T12:53:37.501Z,2.65
2023-03-15T12:56:33.251Z,3.12
2023-03-15T12:59:13.983Z,3.47
2023-03-15T13:01:44.391Z,3.30
2023-03-15T13:04:14.555Z,2.92
2023-03-15T13:07:03.619Z,2.75
2023-03-15T13:10:07.340Z,2.75
2023-03-15T13:12:47.927Z,2.72
2023-03-15T13:15:22.586Z,1.37
2023-03-15T13:18:00.923Z,2.92
2023-03-15T13:20:39.539Z,2.50
2023-03-15T13:23:28.707Z,3.22
2023-03-15T13:26:34.463Z,3.40
2023-03-15T13:29:15.824Z,2.53
2023-03-15T13:31:45.711Z,2.28
2023-03-15T13:34:19.488Z,2.37
2023-03-15T13:36:55.081Z,3.22
2023-03-15T13:39:29.046Z,3.25
2023-03-15T13:42:07.909Z,2.50
2023-03-15T13:44:36.339Z,4.97
2023-03-15T13:47:04.056Z,3.65
2023-03-15T13:49:35.460Z,3.40
2023-03-15T13:52:12.489Z,3.30
2023-03-15T13:54:41.895Z,3.30
2023-03-15T13:57:19.978Z,2.58
2023-03-15T14:00:13.585Z,3.22
2023-03-15T14:02:50.306Z,3.72
2023-03-15T14:05:27.895Z,3.65
2023-03-15T14:08:04.726Z,4.12
2023-03-15T14:10:33.830Z,3.10
2023-03-15T14:13:21.942Z,5.43
2023-03-15T14:15:52.452Z,2.90
2023-03-15T14:18:26.430Z,3.87
2023-03-15T14:21:00.580Z,4.07
2023-03-15T14:23:31.092Z,4.18
2023-03-15T14:26:20.316Z,4.50
2023-03-15T14:29:10.326Z,3.72
2023-03-15T14:31:48.022Z,4.75
2023-03-15T14:34:34.147Z,4.40
2023-03-15T14:37:07.108Z,2.87
2023-03-15T14:39:36.120Z,4.45
2023-03-15T14:42:04.299Z,4.43
2023-03-15T14:44:33.166Z,4.00
2023-03-15T14:47:04.044Z,4.20
2023-03-15T14:49:32.522Z,4.47
2023-03-15T14:52:05.472Z,5.03
2023-03-15T14:54:35.012Z,4.68
2023-03-15T14:57:05.269Z,5.32
2023-03-15T14:59:34.537Z,4.40
2023-03-15T15:02:03.422Z,4.62
2023-03-15T15:04:34.827Z,4.00
2023-03-15T15:07:03.524Z,4.93
2023-03-15T15:09:32.439Z,4.47
2023-03-15T15:12:01.324Z,3.37
2023-03-15T15:14:28.753Z,5.37
2023-03-15T15:16:56.981Z,4.93
2023-03-15T15:19:26.394Z,5.50
2023-03-15T15:21:56.040Z,4.55
2023-03-15T15:24:29.005Z,3.37
2023-03-15T15:26:58.278Z,4.87
2023-03-15T15:29:26.428Z,4.50
2023-03-15T15:31:54.548Z,4.35
2023-03-15T15:34:23.601Z,4.12
2023-03-15T15:36:52.470Z,4.03
2023-03-15T15:39:27.778Z,5.65
2023-03-15T15:41:56.821Z,4.75
2023-03-15T15:44:27.154Z,4.72
2023-03-15T15:46:57.538Z,3.83
2023-03-15T15:49:24.727Z,4.22
2023-03-15T15:51:53.280Z,5.30
2023-03-15T15:54:26.024Z,4.05
2023-03-15T15:56:58.243Z,6.65
2023-03-15T15:59:27.600Z,6.45
2023-03-15T16:02:01.644Z,5.28
2023-03-15T16:04:31.355Z,3.67
2023-03-15T16:07:02.899Z,3.78
2023-03-15T16:09:36.775Z,5.95
2023-03-15T16:12:15.378Z,4.53
2023-03-15T16:14:45.421Z,4.32
2023-03-15T16:17:19.793Z,4.50
2023-03-15T16:19:49.228Z,4.68
2023-03-15T16:22:20.035Z,5.37
2023-03-15T16:24:53.799Z,5.07
2023-03-15T16:27:25.637Z,5.10
2023-03-15T16:29:56.277Z,4.60
2023-03-15T16:32:41.397Z,4.30
2023-03-15T16:35:16.502Z,4.80
2023-03-15T16:40:35.145Z,5.03
2023-03-15T16:43:03.472Z,3.67
2023-03-15T16:45:31.819Z,5.60
2023-03-15T16:48:01.519Z,4.97
2023-03-15T16:50:31.290Z,4.47
2023-03-15T16:53:06.125Z,4.78
2023-03-15T16:55:35.354Z,5.30
2023-03-15T16:58:15.903Z,4.22
2023-03-15T17:01:03.671Z,3.95
2023-03-15T17:03:33.809Z,4.60
2023-03-15T17:06:02.142Z,4.30
2023-03-15T17:08:30.552Z,4.30
2023-03-15T17:10:59.634Z,4.15
2023-03-15T17:13:31.571Z,2.70
2023-03-15T17:16:02.351Z,4.47
2023-03-15T17:18:30.813Z,4.12
2023-03-15T17:20:59.426Z,4.72
2023-03-15T17:23:27.754Z,4.57
2023-03-15T17:25:57.024Z,3.97
2023-03-15T17:28:25.905Z,3.80
2023-03-15T17:30:59.806Z,4.85
2023-03-15T17:33:37.024Z,4.03
2023-03-15T17:36:08.209Z,3.40
2023-03-15T17:38:41.778Z,5.95
2023-03-15T17:41:19.667Z,3.95
2023-03-15T17:43:49.825Z,5.00
2023-03-15T17:46:21.863Z,4.80
2023-03-15T17:48:50.565Z,4.37
2023-03-15T17:51:22.792Z,4.47
2023-03-15T17:53:52.613Z,4.43
2023-03-15T17:56:23.748Z,4.37
2023-03-15T17:58:53.342Z,4.40
2023-03-15T18:01:27.408Z,5.00
2023-03-15T18:03:56.582Z,4.28
2023-03-15T18:06:25.864Z,4.72
2023-03-15T18:08:55.072Z,4.90
2023-03-15T18:11:32.733Z,5.00
2023-03-15T18:14:02.225Z,4.40
2023-03-15T18:16:32.322Z,4.30
2023-03-15T18:19:00.945Z,4.57
2023-03-15T18:21:28.859Z,4.28
2023-03-15T18:23:57.202Z,4.35
2023-03-15T18:26:25.406Z,4.75
2023-03-15T18:28:54.304Z,4.55
2023-03-15T18:31:26.274Z,4.75
2023-03-15T18:33:55.771Z,5.47
2023-03-15T18:36:25.496Z,5.35
2023-03-15T18:38:54.433Z,5.18
2023-03-15T18:41:25.542Z,4.30
2023-03-15T18:43:54.689Z,5.00
2023-03-15T18:46:25.786Z,5.43
2023-03-15T18:48:54.734Z,4.82
2023-03-15T18:51:26.573Z,5.62
2023-03-15T18:53:56.356Z,5.78
2023-03-15T18:56:28.607Z,5.47
2023-03-15T18:58:57.881Z,5.95
2023-03-15T19:01:26.611Z,3.70
2023-03-15T19:03:56.018Z,4.45
2023-03-15T19:06:27.953Z,4.87
2023-03-15T19:08:56.715Z,5.37
2023-03-15T19:11:27.328Z,5.35
2023-03-15T19:13:56.918Z,4.85
2023-03-15T19:16:25.555Z,5.97
2023-03-15T19:18:54.070Z,4.07
2023-03-15T19:21:21.959Z,6.00
2023-03-15T19:23:51.548Z,5.72
2023-03-15T19:26:20.511Z,5.68
2023-03-15T19:28:49.249Z,6.80
2023-03-15T19:31:18.038Z,6.40
2023-03-15T19:33:46.963Z,6.30
2023-03-15T19:36:17.857Z,5.10
2023-03-15T19:38:46.908Z,5.35
2023-03-15T19:41:14.526Z,7.10
2023-03-15T19:43:57.103Z,6.57
2023-03-15T19:46:26.211Z,6.07
2023-03-15T19:48:54.800Z,6.50
2023-03-15T19:51:22.804Z,6.10
2023-03-15T19:53:51.139Z,6.93
2023-03-15T19:56:19.499Z,6.40
2023-03-15T19:58:49.074Z,6.43
2023-03-15T20:01:19.414Z,5.53
2023-03-15T20:03:48.377Z,6.90
2023-03-15T20:06:17.500Z,9.30
2023-03-15T20:08:46.513Z,6.72
2023-03-15T20:11:20.106Z,5.37
2023-03-15T20:13:48.889Z,5.70
2023-03-15T20:16:19.211Z,5.32
2023-03-15T20:18:48.727Z,6.28
2023-03-15T20:21:18.031Z,6.72
2023-03-15T20:23:48.666Z,6.22
2023-03-15T20:26:19.533Z,4.53
2023-03-15T20:28:48.835Z,5.95
2023-03-15T20:31:20.388Z,6.20
2023-03-15T20:33:50.812Z,4.68
2023-03-15T20:36:20.817Z,4.47
2023-03-15T20:38:49.294Z,5.75
2023-03-15T20:41:19.405Z,6.10
2023-03-15T20:43:47.469Z,4.72
2023-03-15T20:46:19.723Z,4.00
2023-03-15T20:48:48.567Z,4.90
2023-03-15T20:51:17.244Z,5.32
2023-03-15T20:53:46.261Z,6.10
2023-03-15T20:56:15.027Z,5.20
2023-03-15T20:58:44.424Z,4.80
2023-03-15T21:01:15.521Z,5.40
2023-03-15T21:03:45.847Z,4.97
2023-03-15T21:06:15.289Z,2.92
2023-03-15T21:08:44.162Z,4.07
2023-03-15T21:11:13.387Z,4.75
2023-03-15T21:13:42.271Z,4.65
2023-03-15T21:16:13.251Z,4.55
2023-03-15T21:18:45.349Z,4.20
2023-03-15T21:21:15.847Z,3.53
2023-03-15T21:23:44.055Z,4.35
2023-03-15T21:26:14.084Z,3.65
2023-03-15T21:28:43.403Z,4.40
2023-03-15T21:31:12.119Z,4.05
2023-03-15T21:33:42.828Z,3.42
2023-03-15T21:36:11.944Z,3.62
2023-03-15T21:38:40.010Z,3.87
2023-03-15T21:41:10.047Z,2.60
2023-03-15T21:43:39.260Z,3.75
2023-03-15T21:46:12.739Z,2.40
2023-03-15T21:48:43.082Z,3.62
2023-03-15T21:51:14.918Z,2.85
2023-03-15T21:53:43.022Z,2.73
2023-03-15T21:56:14.125Z,3.92
2023-03-15T21:58:43.887Z,4.55
2023-03-15T22:01:15.395Z,3.15
2023-03-15T22:03:45.170Z,2.97
2023-03-15T22:06:14.426Z,3.70
2023-03-15T22:08:42.384Z,3.40
2023-03-15T22:11:10.556Z,3.42
2023-03-15T22:13:39.137Z,3.22
2023-03-15T22:16:08.629Z,3.08
2023-03-15T22:18:38.258Z,2.97
2023-03-15T22:21:07.843Z,3.12
2023-03-15T22:23:37.584Z,2.58
2023-03-15T22:26:06.445Z,3.58
2023-03-15T22:28:36.298Z,3.75
2023-03-15T22:31:05.206Z,3.03
2023-03-15T22:33:33.241Z,3.00
2023-03-15T22:36:04.203Z,3.65
2023-03-15T22:38:38.441Z,3.35
2023-03-15T22:41:09.225Z,3.33
2023-03-15T22:43:38.626Z,2.92
2023-03-15T22:46:08.884Z,1.92
2023-03-15T22:48:39.031Z,2.80
2023-03-15T22:51:12.418Z,2.85
2023-03-15T22:53:41.452Z,2.75
2023-03-15T22:56:10.263Z,3.05
2023-03-15T22:58:38.858Z,2.85
2023-03-15T23:01:08.196Z,2.60
2023-03-15T23:03:36.472Z,2.95
2023-03-15T23:06:05.589Z,3.58
2023-03-15T23:08:33.540Z,2.70
2023-03-15T23:11:04.435Z,3.00
2023-03-15T23:13:33.214Z,2.40
2023-03-15T23:16:05.208Z,3.25
2023-03-15T23:18:34.782Z,3.10
2023-03-15T23:21:13.410Z,3.00
2023-03-15T23:23:44.006Z,3.22
2023-03-15T23:26:14.027Z,2.60
2023-03-15T23:28:42.326Z,2.80
2023-03-15T23:31:11.697Z,2.75
2023-03-15T23:33:41.034Z,2.22
2023-03-15T23:36:09.382Z,2.28
2023-03-15T23:38:38.954Z,2.20
2023-03-15T23:41:08.761Z,2.60
2023-03-15T23:43:37.082Z,3.45
2023-03-15T23:46:06.336Z,2.67
2023-03-15T23:48:37.326Z,1.95
2023-03-15T23:51:06.454Z,2.40
2023-03-15T23:53:35.951Z,2.50
2023-03-15T23:56:04.491Z,2.15
2023-03-15T23:58:33.405Z,2.40
